Rose Valley, Pennsylvania
Current Conditions -  °F | °C
As of 3:54 PM on Friday 19 Dec 2014 (Local Time) from KPHL Reporting Station
Few Clouds Few Clouds  
Wind Chill: 33°   Ceiling: Unl
Heat Index: 41°   Visibility: 10mi
Dew Point: 21°   Wind: 16mph
Humidity: 45%   Direction: 310°NW
Pressure: 30.1"   Gusts: 23mph
Location:  39.8901°N, 75.3702°W
Report Text: KPHL 192054Z 31014G20KT 10SM FEW040 05/M06 A3010 RMK AO2 SLP191 T00501061 53003
Loading
Personal Weather Stations






























Interactive Weather Map New forecast layout! Learn more

10-Day Weather Forecast

Advertisements
Track Severe Weather on mobile